sensor_id;sensor_type;location;lat;lon;timestamp;P1;durP1;ratioP1;P2;durP2;ratioP2
74833;SDS011;63361;52.384;20.930;2023-01-09T00:02:04;61.77;;;24.23;;
74833;SDS011;63361;52.384;20.930;2023-01-09T00:04:30;60.80;;;24.77;;
74833;SDS011;63361;52.384;20.930;2023-01-09T00:06:55;59.07;;;24.20;;
74833;SDS011;63361;52.384;20.930;2023-01-09T00:09:21;56.57;;;24.77;;
74833;SDS011;63361;52.384;20.930;2023-01-09T00:11:47;65.50;;;27.13;;
74833;SDS011;63361;52.384;20.930;2023-01-09T00:14:14;57.03;;;24.00;;
74833;SDS011;63361;52.384;20.930;2023-01-09T00:16:40;62.33;;;25.63;;
74833;SDS011;63361;52.384;20.930;2023-01-09T00:19:06;94.63;;;45.20;;
74833;SDS011;63361;52.384;20.930;2023-01-09T00:21:31;106.90;;;58.37;;
74833;SDS011;63361;52.384;20.930;2023-01-09T00:23:56;65.37;;;31.53;;
74833;SDS011;63361;52.384;20.930;2023-01-09T00:26:21;70.10;;;28.10;;
74833;SDS011;63361;52.384;20.930;2023-01-09T00:28:47;58.00;;;25.40;;
74833;SDS011;63361;52.384;20.930;2023-01-09T00:31:15;60.70;;;27.17;;
74833;SDS011;63361;52.384;20.930;2023-01-09T00:33:42;55.08;;;21.67;;
74833;SDS011;63361;52.384;20.930;2023-01-09T00:36:10;58.75;;;25.92;;
74833;SDS011;63361;52.384;20.930;2023-01-09T00:38:36;73.20;;;33.08;;
74833;SDS011;63361;52.384;20.930;2023-01-09T00:41:02;74.97;;;31.23;;
74833;SDS011;63361;52.384;20.930;2023-01-09T00:43:31;76.43;;;32.35;;
74833;SDS011;63361;52.384;20.930;2023-01-09T00:45:59;89.40;;;37.55;;
74833;SDS011;63361;52.384;20.930;2023-01-09T00:48:26;79.18;;;33.92;;
74833;SDS011;63361;52.384;20.930;2023-01-09T00:50:54;78.03;;;29.33;;
74833;SDS011;63361;52.384;20.930;2023-01-09T00:53:22;68.90;;;26.77;;
74833;SDS011;63361;52.384;20.930;2023-01-09T00:55:51;60.92;;;25.23;;
74833;SDS011;63361;52.384;20.930;2023-01-09T00:58:17;56.83;;;24.30;;
74833;SDS011;63361;52.384;20.930;2023-01-09T01:00:43;47.70;;;21.07;;
74833;SDS011;63361;52.384;20.930;2023-01-09T01:03:08;66.17;;;26.83;;
74833;SDS011;63361;52.384;20.930;2023-01-09T01:05:34;56.67;;;24.45;;
74833;SDS011;63361;52.384;20.930;2023-01-09T01:08:22;57.03;;;24.65;;
74833;SDS011;63361;52.384;20.930;2023-01-09T01:10:48;58.07;;;24.43;;
74833;SDS011;63361;52.384;20.930;2023-01-09T01:13:13;59.37;;;25.30;;
74833;SDS011;63361;52.384;20.930;2023-01-09T01:15:40;53.20;;;23.63;;
74833;SDS011;63361;52.384;20.930;2023-01-09T01:18:07;55.00;;;24.30;;
74833;SDS011;63361;52.384;20.930;2023-01-09T01:20:33;54.72;;;23.42;;
74833;SDS011;63361;52.384;20.930;2023-01-09T01:22:58;56.23;;;24.07;;
74833;SDS011;63361;52.384;20.930;2023-01-09T01:25:24;55.90;;;23.90;;
74833;SDS011;63361;52.384;20.930;2023-01-09T01:27:49;56.90;;;24.75;;
74833;SDS011;63361;52.384;20.930;2023-01-09T01:30:15;51.93;;;22.27;;
74833;SDS011;63361;52.384;20.930;2023-01-09T01:32:41;53.90;;;23.08;;
74833;SDS011;63361;52.384;20.930;2023-01-09T01:35:07;47.17;;;22.63;;
74833;SDS011;63361;52.384;20.930;2023-01-09T01:37:34;50.47;;;21.67;;
74833;SDS011;63361;52.384;20.930;2023-01-09T01:40:00;57.10;;;22.63;;
74833;SDS011;63361;52.384;20.930;2023-01-09T01:42:25;52.53;;;23.73;;
74833;SDS011;63361;52.384;20.930;2023-01-09T01:44:58;53.53;;;23.57;;
74833;SDS011;63361;52.384;20.930;2023-01-09T01:47:30;51.95;;;21.95;;
74833;SDS011;63361;52.384;20.930;2023-01-09T01:50:03;101.47;;;46.42;;
74833;SDS011;63361;52.384;20.930;2023-01-09T01:52:38;54.70;;;24.15;;
74833;SDS011;63361;52.384;20.930;2023-01-09T01:55:06;52.23;;;23.80;;
74833;SDS011;63361;52.384;20.930;2023-01-09T01:57:33;51.00;;;23.95;;
74833;SDS011;63361;52.384;20.930;2023-01-09T01:59:59;53.83;;;23.77;;
74833;SDS011;63361;52.384;20.930;2023-01-09T02:02:27;52.05;;;24.88;;
74833;SDS011;63361;52.384;20.930;2023-01-09T02:04:55;51.97;;;23.30;;
74833;SDS011;63361;52.384;20.930;2023-01-09T02:07:23;55.53;;;24.43;;
74833;SDS011;63361;52.384;20.930;2023-01-09T02:09:48;52.30;;;22.98;;
74833;SDS011;63361;52.384;20.930;2023-01-09T02:15:00;56.07;;;24.57;;
74833;SDS011;63361;52.384;20.930;2023-01-09T02:31:35;45.95;;;21.13;;
74833;SDS011;63361;52.384;20.930;2023-01-09T02:40:12;51.08;;;22.20;;
74833;SDS011;63361;52.384;20.930;2023-01-09T02:42:20;52.27;;;22.13;;
74833;SDS011;63361;52.384;20.930;2023-01-09T02:44:47;46.80;;;21.42;;
74833;SDS011;63361;52.384;20.930;2023-01-09T02:49:38;50.87;;;22.37;;
74833;SDS011;63361;52.384;20.930;2023-01-09T03:05:34;46.70;;;21.48;;
74833;SDS011;63361;52.384;20.930;2023-01-09T03:08:14;45.05;;;21.23;;
74833;SDS011;63361;52.384;20.930;2023-01-09T03:13:23;42.40;;;19.88;;
74833;SDS011;63361;52.384;20.930;2023-01-09T03:15:52;47.55;;;21.38;;
74833;SDS011;63361;52.384;20.930;2023-01-09T03:18:23;48.55;;;22.10;;
74833;SDS011;63361;52.384;20.930;2023-01-09T03:20:51;50.03;;;23.10;;
74833;SDS011;63361;52.384;20.930;2023-01-09T03:23:18;49.97;;;21.77;;
74833;SDS011;63361;52.384;20.930;2023-01-09T03:25:43;50.17;;;21.45;;
74833;SDS011;63361;52.384;20.930;2023-01-09T03:28:12;43.93;;;20.77;;
74833;SDS011;63361;52.384;20.930;2023-01-09T03:30:52;46.33;;;20.20;;
74833;SDS011;63361;52.384;20.930;2023-01-09T03:33:18;44.38;;;20.15;;
74833;SDS011;63361;52.384;20.930;2023-01-09T03:35:43;43.50;;;19.67;;
74833;SDS011;63361;52.384;20.930;2023-01-09T03:38:09;44.80;;;20.97;;
74833;SDS011;63361;52.384;20.930;2023-01-09T03:40:34;48.58;;;21.48;;
74833;SDS011;63361;52.384;20.930;2023-01-09T03:43:00;37.80;;;17.03;;
74833;SDS011;63361;52.384;20.930;2023-01-09T03:45:25;48.40;;;20.83;;
74833;SDS011;63361;52.384;20.930;2023-01-09T03:47:51;44.17;;;20.20;;
74833;SDS011;63361;52.384;20.930;2023-01-09T03:50:16;44.43;;;20.83;;
74833;SDS011;63361;52.384;20.930;2023-01-09T03:52:41;43.60;;;20.30;;
74833;SDS011;63361;52.384;20.930;2023-01-09T03:55:07;47.63;;;20.73;;
74833;SDS011;63361;52.384;20.930;2023-01-09T03:57:32;47.00;;;21.53;;
74833;SDS011;63361;52.384;20.930;2023-01-09T03:59:58;45.60;;;20.90;;
74833;SDS011;63361;52.384;20.930;2023-01-09T04:02:23;44.70;;;20.20;;
74833;SDS011;63361;52.384;20.930;2023-01-09T04:04:48;46.40;;;22.37;;
74833;SDS011;63361;52.384;20.930;2023-01-09T04:07:13;44.97;;;19.92;;
74833;SDS011;63361;52.384;20.930;2023-01-09T04:09:39;48.97;;;21.17;;
74833;SDS011;63361;52.384;20.930;2023-01-09T04:12:04;47.43;;;21.83;;
74833;SDS011;63361;52.384;20.930;2023-01-09T04:14:30;42.67;;;20.47;;
74833;SDS011;63361;52.384;20.930;2023-01-09T04:16:55;44.17;;;19.58;;
74833;SDS011;63361;52.384;20.930;2023-01-09T04:19:20;45.63;;;21.97;;
74833;SDS011;63361;52.384;20.930;2023-01-09T04:21:46;42.40;;;19.67;;
74833;SDS011;63361;52.384;20.930;2023-01-09T04:24:11;44.03;;;19.73;;
74833;SDS011;63361;52.384;20.930;2023-01-09T04:26:36;44.27;;;19.93;;
74833;SDS011;63361;52.384;20.930;2023-01-09T04:29:02;39.13;;;18.97;;
74833;SDS011;63361;52.384;20.930;2023-01-09T04:31:27;40.50;;;19.80;;
74833;SDS011;63361;52.384;20.930;2023-01-09T04:33:52;42.87;;;20.83;;
74833;SDS011;63361;52.384;20.930;2023-01-09T04:36:18;37.60;;;19.13;;
74833;SDS011;63361;52.384;20.930;2023-01-09T04:38:43;44.25;;;21.20;;
74833;SDS011;63361;52.384;20.930;2023-01-09T04:41:08;39.97;;;20.17;;
74833;SDS011;63361;52.384;20.930;2023-01-09T04:43:34;41.53;;;19.47;;
74833;SDS011;63361;52.384;20.930;2023-01-09T04:45:59;39.63;;;19.70;;
74833;SDS011;63361;52.384;20.930;2023-01-09T04:48:25;42.75;;;20.83;;
74833;SDS011;63361;52.384;20.930;2023-01-09T04:50:51;40.40;;;19.83;;
74833;SDS011;63361;52.384;20.930;2023-01-09T04:53:16;38.97;;;19.13;;
74833;SDS011;63361;52.384;20.930;2023-01-09T04:55:41;39.60;;;19.40;;
74833;SDS011;63361;52.384;20.930;2023-01-09T04:58:07;39.23;;;19.67;;
74833;SDS011;63361;52.384;20.930;2023-01-09T05:00:32;37.30;;;19.15;;
74833;SDS011;63361;52.384;20.930;2023-01-09T05:02:58;38.10;;;19.97;;
74833;SDS011;63361;52.384;20.930;2023-01-09T05:05:23;42.03;;;18.93;;
74833;SDS011;63361;52.384;20.930;2023-01-09T05:07:48;39.83;;;19.97;;
74833;SDS011;63361;52.384;20.930;2023-01-09T05:10:14;37.17;;;18.53;;
74833;SDS011;63361;52.384;20.930;2023-01-09T05:12:39;40.03;;;18.93;;
74833;SDS011;63361;52.384;20.930;2023-01-09T05:15:05;39.88;;;20.13;;
74833;SDS011;63361;52.384;20.930;2023-01-09T05:17:31;40.43;;;19.10;;
74833;SDS011;63361;52.384;20.930;2023-01-09T05:19:57;38.30;;;20.17;;
74833;SDS011;63361;52.384;20.930;2023-01-09T05:22:22;42.10;;;19.00;;
74833;SDS011;63361;52.384;20.930;2023-01-09T05:24:47;41.43;;;19.93;;
74833;SDS011;63361;52.384;20.930;2023-01-09T05:27:13;39.73;;;19.13;;
74833;SDS011;63361;52.384;20.930;2023-01-09T05:29:38;37.03;;;18.73;;
74833;SDS011;63361;52.384;20.930;2023-01-09T05:32:03;43.47;;;19.53;;
74833;SDS011;63361;52.384;20.930;2023-01-09T05:34:29;47.63;;;19.53;;
74833;SDS011;63361;52.384;20.930;2023-01-09T05:36:54;42.53;;;19.35;;
74833;SDS011;63361;52.384;20.930;2023-01-09T05:39:20;40.60;;;19.37;;
74833;SDS011;63361;52.384;20.930;2023-01-09T05:41:45;36.63;;;19.30;;
74833;SDS011;63361;52.384;20.930;2023-01-09T05:44:10;37.30;;;17.93;;
74833;SDS011;63361;52.384;20.930;2023-01-09T05:46:36;40.60;;;20.17;;
74833;SDS011;63361;52.384;20.930;2023-01-09T05:49:01;39.17;;;18.23;;
74833;SDS011;63361;52.384;20.930;2023-01-09T05:51:27;49.13;;;27.23;;
74833;SDS011;63361;52.384;20.930;2023-01-09T05:53:52;50.00;;;24.53;;
74833;SDS011;63361;52.384;20.930;2023-01-09T05:56:17;41.40;;;19.33;;
74833;SDS011;63361;52.384;20.930;2023-01-09T05:58:43;39.43;;;19.13;;
74833;SDS011;63361;52.384;20.930;2023-01-09T06:01:08;39.05;;;19.08;;
74833;SDS011;63361;52.384;20.930;2023-01-09T06:03:33;41.37;;;18.93;;
74833;SDS011;63361;52.384;20.930;2023-01-09T06:05:59;36.60;;;19.30;;
74833;SDS011;63361;52.384;20.930;2023-01-09T06:08:24;38.50;;;18.77;;
74833;SDS011;63361;52.384;20.930;2023-01-09T06:10:50;36.87;;;19.07;;
74833;SDS011;63361;52.384;20.930;2023-01-09T06:13:15;40.47;;;19.35;;
74833;SDS011;63361;52.384;20.930;2023-01-09T06:15:40;43.60;;;19.03;;
74833;SDS011;63361;52.384;20.930;2023-01-09T06:18:06;35.07;;;18.37;;
74833;SDS011;63361;52.384;20.930;2023-01-09T06:20:32;41.03;;;20.17;;
74833;SDS011;63361;52.384;20.930;2023-01-09T06:22:57;40.55;;;19.88;;
74833;SDS011;63361;52.384;20.930;2023-01-09T06:25:23;39.73;;;19.37;;
74833;SDS011;63361;52.384;20.930;2023-01-09T06:27:48;35.50;;;18.83;;
74833;SDS011;63361;52.384;20.930;2023-01-09T06:30:16;40.33;;;19.98;;
74833;SDS011;63361;52.384;20.930;2023-01-09T06:32:41;41.97;;;20.30;;
74833;SDS011;63361;52.384;20.930;2023-01-09T06:35:07;129.23;;;54.77;;
74833;SDS011;63361;52.384;20.930;2023-01-09T06:37:33;81.90;;;35.15;;
74833;SDS011;63361;52.384;20.930;2023-01-09T06:39:58;42.63;;;20.43;;
74833;SDS011;63361;52.384;20.930;2023-01-09T06:42:23;42.77;;;21.13;;
74833;SDS011;63361;52.384;20.930;2023-01-09T06:44:49;45.50;;;21.77;;
74833;SDS011;63361;52.384;20.930;2023-01-09T06:47:17;40.45;;;19.73;;
74833;SDS011;63361;52.384;20.930;2023-01-09T06:49:43;49.70;;;22.30;;
74833;SDS011;63361;52.384;20.930;2023-01-09T06:52:08;99.43;;;40.30;;
74833;SDS011;63361;52.384;20.930;2023-01-09T06:54:33;52.43;;;24.20;;
74833;SDS011;63361;52.384;20.930;2023-01-09T06:56:59;60.17;;;24.75;;
74833;SDS011;63361;52.384;20.930;2023-01-09T06:59:25;39.25;;;19.25;;
74833;SDS011;63361;52.384;20.930;2023-01-09T07:01:51;41.87;;;19.57;;
74833;SDS011;63361;52.384;20.930;2023-01-09T07:04:16;37.43;;;19.03;;
74833;SDS011;63361;52.384;20.930;2023-01-09T07:06:42;37.22;;;19.48;;
74833;SDS011;63361;52.384;20.930;2023-01-09T07:09:08;44.20;;;21.05;;
74833;SDS011;63361;52.384;20.930;2023-01-09T07:11:37;41.77;;;20.53;;
74833;SDS011;63361;52.384;20.930;2023-01-09T07:14:03;48.65;;;22.63;;
74833;SDS011;63361;52.384;20.930;2023-01-09T07:16:28;60.63;;;29.75;;
74833;SDS011;63361;52.384;20.930;2023-01-09T07:18:54;136.43;;;50.27;;
74833;SDS011;63361;52.384;20.930;2023-01-09T07:21:19;75.73;;;30.93;;
74833;SDS011;63361;52.384;20.930;2023-01-09T07:23:44;77.33;;;31.43;;
74833;SDS011;63361;52.384;20.930;2023-01-09T07:26:10;55.73;;;27.07;;
74833;SDS011;63361;52.384;20.930;2023-01-09T07:28:35;35.93;;;18.20;;
74833;SDS011;63361;52.384;20.930;2023-01-09T07:31:00;34.07;;;18.60;;
74833;SDS011;63361;52.384;20.930;2023-01-09T07:33:28;36.70;;;19.05;;
74833;SDS011;63361;52.384;20.930;2023-01-09T07:35:53;42.83;;;20.77;;
74833;SDS011;63361;52.384;20.930;2023-01-09T07:38:19;39.47;;;21.37;;
74833;SDS011;63361;52.384;20.930;2023-01-09T07:40:44;37.50;;;18.90;;
74833;SDS011;63361;52.384;20.930;2023-01-09T07:43:09;33.28;;;17.48;;
74833;SDS011;63361;52.384;20.930;2023-01-09T07:45:35;43.70;;;20.03;;
74833;SDS011;63361;52.384;20.930;2023-01-09T07:48:00;73.70;;;33.10;;
74833;SDS011;63361;52.384;20.930;2023-01-09T07:50:25;57.23;;;24.63;;
74833;SDS011;63361;52.384;20.930;2023-01-09T07:52:50;59.20;;;26.13;;
74833;SDS011;63361;52.384;20.930;2023-01-09T07:55:16;48.27;;;24.03;;
74833;SDS011;63361;52.384;20.930;2023-01-09T07:57:41;30.83;;;17.15;;
74833;SDS011;63361;52.384;20.930;2023-01-09T08:00:07;38.10;;;17.17;;
74833;SDS011;63361;52.384;20.930;2023-01-09T08:02:34;41.57;;;18.57;;
74833;SDS011;63361;52.384;20.930;2023-01-09T08:05:00;32.88;;;16.23;;
74833;SDS011;63361;52.384;20.930;2023-01-09T08:07:26;33.90;;;16.05;;
74833;SDS011;63361;52.384;20.930;2023-01-09T08:09:52;33.97;;;16.23;;
74833;SDS011;63361;52.384;20.930;2023-01-09T08:12:17;34.13;;;18.17;;
74833;SDS011;63361;52.384;20.930;2023-01-09T08:14:42;36.47;;;17.23;;
74833;SDS011;63361;52.384;20.930;2023-01-09T08:17:07;27.10;;;15.03;;
74833;SDS011;63361;52.384;20.930;2023-01-09T08:19:34;35.80;;;17.52;;
74833;SDS011;63361;52.384;20.930;2023-01-09T08:22:00;33.03;;;16.83;;
74833;SDS011;63361;52.384;20.930;2023-01-09T08:24:25;27.77;;;15.37;;
74833;SDS011;63361;52.384;20.930;2023-01-09T08:26:50;36.97;;;20.20;;
74833;SDS011;63361;52.384;20.930;2023-01-09T08:29:16;36.87;;;17.37;;
74833;SDS011;63361;52.384;20.930;2023-01-09T08:31:41;32.63;;;16.43;;
74833;SDS011;63361;52.384;20.930;2023-01-09T08:34:06;42.53;;;17.83;;
74833;SDS011;63361;52.384;20.930;2023-01-09T08:36:32;34.40;;;17.83;;
74833;SDS011;63361;52.384;20.930;2023-01-09T08:38:57;36.47;;;19.17;;
74833;SDS011;63361;52.384;20.930;2023-01-09T08:41:22;33.27;;;17.00;;
74833;SDS011;63361;52.384;20.930;2023-01-09T08:44:06;27.35;;;14.60;;
74833;SDS011;63361;52.384;20.930;2023-01-09T08:46:50;30.13;;;14.88;;
74833;SDS011;63361;52.384;20.930;2023-01-09T08:49:35;32.72;;;16.42;;
74833;SDS011;63361;52.384;20.930;2023-01-09T08:52:02;27.38;;;15.20;;
74833;SDS011;63361;52.384;20.930;2023-01-09T08:54:29;31.13;;;17.10;;
74833;SDS011;63361;52.384;20.930;2023-01-09T08:56:54;29.30;;;14.52;;
74833;SDS011;63361;52.384;20.930;2023-01-09T08:59:19;28.13;;;16.10;;
74833;SDS011;63361;52.384;20.930;2023-01-09T09:01:44;28.03;;;16.50;;
74833;SDS011;63361;52.384;20.930;2023-01-09T09:04:10;26.70;;;13.80;;
74833;SDS011;63361;52.384;20.930;2023-01-09T09:06:35;28.67;;;15.50;;
74833;SDS011;63361;52.384;20.930;2023-01-09T09:09:01;27.93;;;14.23;;
74833;SDS011;63361;52.384;20.930;2023-01-09T09:11:31;26.50;;;15.05;;
74833;SDS011;63361;52.384;20.930;2023-01-09T09:13:58;28.83;;;14.55;;
74833;SDS011;63361;52.384;20.930;2023-01-09T09:16:24;29.75;;;14.57;;
74833;SDS011;63361;52.384;20.930;2023-01-09T09:18:50;26.67;;;14.27;;
74833;SDS011;63361;52.384;20.930;2023-01-09T09:21:16;25.80;;;15.00;;
74833;SDS011;63361;52.384;20.930;2023-01-09T09:23:41;24.07;;;14.57;;
74833;SDS011;63361;52.384;20.930;2023-01-09T09:26:08;27.35;;;16.58;;
74833;SDS011;63361;52.384;20.930;2023-01-09T09:28:33;34.22;;;17.17;;
74833;SDS011;63361;52.384;20.930;2023-01-09T09:30:59;26.43;;;14.10;;
74833;SDS011;63361;52.384;20.930;2023-01-09T09:33:24;25.67;;;13.63;;
74833;SDS011;63361;52.384;20.930;2023-01-09T09:35:49;27.67;;;14.70;;
74833;SDS011;63361;52.384;20.930;2023-01-09T09:38:15;33.60;;;18.67;;
74833;SDS011;63361;52.384;20.930;2023-01-09T09:52:55;24.73;;;14.17;;
74833;SDS011;63361;52.384;20.930;2023-01-09T09:55:35;25.60;;;15.27;;
74833;SDS011;63361;52.384;20.930;2023-01-09T09:58:10;26.50;;;14.80;;
74833;SDS011;63361;52.384;20.930;2023-01-09T10:00:46;24.80;;;13.90;;
74833;SDS011;63361;52.384;20.930;2023-01-09T10:03:20;29.88;;;15.02;;
74833;SDS011;63361;52.384;20.930;2023-01-09T10:05:49;37.13;;;16.20;;
74833;SDS011;63361;52.384;20.930;2023-01-09T10:08:23;29.95;;;14.82;;
74833;SDS011;63361;52.384;20.930;2023-01-09T10:11:00;24.25;;;13.77;;
74833;SDS011;63361;52.384;20.930;2023-01-09T10:13:26;25.60;;;14.18;;
74833;SDS011;63361;52.384;20.930;2023-01-09T10:16:24;31.97;;;16.00;;
74833;SDS011;63361;52.384;20.930;2023-01-09T10:38:30;26.05;;;13.77;;
74833;SDS011;63361;52.384;20.930;2023-01-09T10:41:01;35.50;;;15.90;;
74833;SDS011;63361;52.384;20.930;2023-01-09T10:43:38;30.80;;;15.40;;
74833;SDS011;63361;52.384;20.930;2023-01-09T10:46:11;36.95;;;15.43;;
74833;SDS011;63361;52.384;20.930;2023-01-09T10:48:42;33.58;;;16.42;;
74833;SDS011;63361;52.384;20.930;2023-01-09T10:51:17;32.75;;;17.38;;
74833;SDS011;63361;52.384;20.930;2023-01-09T10:53:45;29.38;;;15.88;;
74833;SDS011;63361;52.384;20.930;2023-01-09T10:58:52;31.00;;;16.05;;
74833;SDS011;63361;52.384;20.930;2023-01-09T11:01:29;31.40;;;16.85;;
74833;SDS011;63361;52.384;20.930;2023-01-09T11:03:57;31.30;;;16.67;;
74833;SDS011;63361;52.384;20.930;2023-01-09T11:06:35;34.53;;;17.38;;
74833;SDS011;63361;52.384;20.930;2023-01-09T11:09:08;31.60;;;16.93;;
74833;SDS011;63361;52.384;20.930;2023-01-09T11:11:42;32.85;;;17.48;;
74833;SDS011;63361;52.384;20.930;2023-01-09T11:14:42;30.10;;;16.27;;
74833;SDS011;63361;52.384;20.930;2023-01-09T11:17:01;28.95;;;17.08;;
74833;SDS011;63361;52.384;20.930;2023-01-09T11:19:28;30.90;;;17.33;;
74833;SDS011;63361;52.384;20.930;2023-01-09T11:22:15;32.42;;;17.73;;
74833;SDS011;63361;52.384;20.930;2023-01-09T11:24:41;33.55;;;18.35;;
74833;SDS011;63361;52.384;20.930;2023-01-09T11:27:21;35.43;;;19.47;;
74833;SDS011;63361;52.384;20.930;2023-01-09T11:30:09;32.72;;;17.90;;
74833;SDS011;63361;52.384;20.930;2023-01-09T11:32:40;31.92;;;17.02;;
74833;SDS011;63361;52.384;20.930;2023-01-09T11:35:14;34.13;;;18.30;;
74833;SDS011;63361;52.384;20.930;2023-01-09T11:40:38;33.28;;;17.98;;
74833;SDS011;63361;52.384;20.930;2023-01-09T11:43:14;32.30;;;17.75;;
74833;SDS011;63361;52.384;20.930;2023-01-09T11:45:44;41.35;;;21.35;;
74833;SDS011;63361;52.384;20.930;2023-01-09T11:48:30;37.33;;;18.97;;
74833;SDS011;63361;52.384;20.930;2023-01-09T11:51:01;39.78;;;19.55;;
74833;SDS011;63361;52.384;20.930;2023-01-09T11:53:29;37.55;;;20.00;;
74833;SDS011;63361;52.384;20.930;2023-01-09T11:56:10;42.72;;;21.83;;
74833;SDS011;63361;52.384;20.930;2023-01-09T11:58:38;40.63;;;20.40;;
74833;SDS011;63361;52.384;20.930;2023-01-09T12:12:27;44.08;;;23.23;;
74833;SDS011;63361;52.384;20.930;2023-01-09T12:20:52;49.20;;;24.93;;
74833;SDS011;63361;52.384;20.930;2023-01-09T12:23:24;49.03;;;24.52;;
74833;SDS011;63361;52.384;20.930;2023-01-09T12:26:19;44.80;;;22.75;;
74833;SDS011;63361;52.384;20.930;2023-01-09T12:40:26;52.08;;;27.38;;
74833;SDS011;63361;52.384;20.930;2023-01-09T12:51:36;60.83;;;28.85;;
74833;SDS011;63361;52.384;20.930;2023-01-09T12:57:02;60.40;;;27.98;;
74833;SDS011;63361;52.384;20.930;2023-01-09T13:00:10;55.75;;;27.50;;
74833;SDS011;63361;52.384;20.930;2023-01-09T13:02:31;66.53;;;28.20;;
74833;SDS011;63361;52.384;20.930;2023-01-09T13:05:38;76.32;;;36.88;;
74833;SDS011;63361;52.384;20.930;2023-01-09T13:10:47;60.30;;;28.88;;
74833;SDS011;63361;52.384;20.930;2023-01-09T13:13:17;59.10;;;26.95;;
74833;SDS011;63361;52.384;20.930;2023-01-09T13:15:55;54.73;;;26.13;;
74833;SDS011;63361;52.384;20.930;2023-01-09T13:18:28;53.05;;;29.15;;
74833;SDS011;63361;52.384;20.930;2023-01-09T13:21:10;56.90;;;28.45;;
74833;SDS011;63361;52.384;20.930;2023-01-09T13:23:42;57.20;;;28.90;;
74833;SDS011;63361;52.384;20.930;2023-01-09T13:26:28;50.60;;;28.17;;
74833;SDS011;63361;52.384;20.930;2023-01-09T13:28:59;51.97;;;27.40;;
74833;SDS011;63361;52.384;20.930;2023-01-09T13:34:19;55.75;;;28.88;;
74833;SDS011;63361;52.384;20.930;2023-01-09T13:36:52;53.80;;;29.27;;
74833;SDS011;63361;52.384;20.930;2023-01-09T13:39:21;82.63;;;31.60;;
74833;SDS011;63361;52.384;20.930;2023-01-09T13:42:01;81.63;;;30.37;;
74833;SDS011;63361;52.384;20.930;2023-01-09T13:44:51;74.70;;;31.05;;
74833;SDS011;63361;52.384;20.930;2023-01-09T13:47:20;48.53;;;26.77;;
74833;SDS011;63361;52.384;20.930;2023-01-09T13:59:42;53.17;;;27.93;;
74833;SDS011;63361;52.384;20.930;2023-01-09T14:13:03;51.65;;;28.65;;
74833;SDS011;63361;52.384;20.930;2023-01-09T14:15:42;43.23;;;24.20;;
74833;SDS011;63361;52.384;20.930;2023-01-09T14:25:47;50.80;;;27.47;;
74833;SDS011;63361;52.384;20.930;2023-01-09T14:28:23;51.47;;;26.90;;
74833;SDS011;63361;52.384;20.930;2023-01-09T14:35:44;48.58;;;28.33;;
74833;SDS011;63361;52.384;20.930;2023-01-09T14:38:31;56.43;;;30.47;;
74833;SDS011;63361;52.384;20.930;2023-01-09T14:41:03;54.08;;;28.73;;
74833;SDS011;63361;52.384;20.930;2023-01-09T14:46:20;53.13;;;26.73;;
74833;SDS011;63361;52.384;20.930;2023-01-09T14:48:58;63.60;;;31.75;;
74833;SDS011;63361;52.384;20.930;2023-01-09T14:51:24;59.83;;;29.97;;
74833;SDS011;63361;52.384;20.930;2023-01-09T14:53:51;46.33;;;26.63;;
74833;SDS011;63361;52.384;20.930;2023-01-09T14:56:23;57.47;;;29.92;;
74833;SDS011;63361;52.384;20.930;2023-01-09T14:59:10;55.00;;;31.13;;
74833;SDS011;63361;52.384;20.930;2023-01-09T15:01:37;53.50;;;28.98;;
74833;SDS011;63361;52.384;20.930;2023-01-09T15:04:09;54.33;;;29.50;;
74833;SDS011;63361;52.384;20.930;2023-01-09T15:06:47;56.40;;;29.23;;
74833;SDS011;63361;52.384;20.930;2023-01-09T15:09:19;47.47;;;27.60;;
74833;SDS011;63361;52.384;20.930;2023-01-09T15:11:45;54.13;;;28.85;;
74833;SDS011;63361;52.384;20.930;2023-01-09T15:14:18;49.85;;;26.75;;
74833;SDS011;63361;52.384;20.930;2023-01-09T15:16:50;60.78;;;35.33;;
74833;SDS011;63361;52.384;20.930;2023-01-09T15:19:15;51.13;;;28.37;;
74833;SDS011;63361;52.384;20.930;2023-01-09T15:21:54;49.75;;;30.63;;
74833;SDS011;63361;52.384;20.930;2023-01-09T15:24:21;41.97;;;24.40;;
74833;SDS011;63361;52.384;20.930;2023-01-09T15:26:53;53.33;;;29.35;;
74833;SDS011;63361;52.384;20.930;2023-01-09T15:29:23;59.15;;;31.98;;
74833;SDS011;63361;52.384;20.930;2023-01-09T15:31:55;80.28;;;41.88;;
74833;SDS011;63361;52.384;20.930;2023-01-09T15:34:25;51.00;;;27.10;;
74833;SDS011;63361;52.384;20.930;2023-01-09T15:36:51;66.47;;;36.33;;
74833;SDS011;63361;52.384;20.930;2023-01-09T15:39:22;56.78;;;30.80;;
74833;SDS011;63361;52.384;20.930;2023-01-09T15:41:50;63.63;;;34.23;;
74833;SDS011;63361;52.384;20.930;2023-01-09T15:44:36;58.72;;;31.40;;
74833;SDS011;63361;52.384;20.930;2023-01-09T15:47:03;50.78;;;27.85;;
74833;SDS011;63361;52.384;20.930;2023-01-09T15:49:32;62.67;;;31.50;;
74833;SDS011;63361;52.384;20.930;2023-01-09T15:51:59;69.20;;;32.33;;
74833;SDS011;63361;52.384;20.930;2023-01-09T15:54:29;54.43;;;28.40;;
74833;SDS011;63361;52.384;20.930;2023-01-09T15:59:49;85.20;;;42.00;;
74833;SDS011;63361;52.384;20.930;2023-01-09T16:02:15;94.53;;;41.20;;
74833;SDS011;63361;52.384;20.930;2023-01-09T16:05:04;55.13;;;31.27;;
74833;SDS011;63361;52.384;20.930;2023-01-09T16:07:42;76.78;;;37.42;;
74833;SDS011;63361;52.384;20.930;2023-01-09T16:10:25;90.13;;;33.60;;
74833;SDS011;63361;52.384;20.930;2023-01-09T16:12:57;72.25;;;33.58;;
74833;SDS011;63361;52.384;20.930;2023-01-09T16:15:22;70.40;;;30.10;;
74833;SDS011;63361;52.384;20.930;2023-01-09T16:20:39;72.32;;;29.08;;
74833;SDS011;63361;52.384;20.930;2023-01-09T16:26:14;66.28;;;31.95;;
74833;SDS011;63361;52.384;20.930;2023-01-09T16:28:45;57.88;;;31.85;;
74833;SDS011;63361;52.384;20.930;2023-01-09T16:31:24;58.77;;;30.20;;
74833;SDS011;63361;52.384;20.930;2023-01-09T16:33:53;61.17;;;29.67;;
74833;SDS011;63361;52.384;20.930;2023-01-09T16:36:30;63.22;;;33.05;;
74833;SDS011;63361;52.384;20.930;2023-01-09T16:38:58;56.83;;;28.60;;
74833;SDS011;63361;52.384;20.930;2023-01-09T16:41:25;49.33;;;26.30;;
74833;SDS011;63361;52.384;20.930;2023-01-09T16:44:09;50.35;;;28.77;;
74833;SDS011;63361;52.384;20.930;2023-01-09T16:46:41;51.97;;;28.80;;
74833;SDS011;63361;52.384;20.930;2023-01-09T16:49:17;50.22;;;26.63;;
74833;SDS011;63361;52.384;20.930;2023-01-09T16:51:47;46.35;;;25.15;;
74833;SDS011;63361;52.384;20.930;2023-01-09T16:54:14;39.78;;;22.38;;
74833;SDS011;63361;52.384;20.930;2023-01-09T16:56:41;40.17;;;22.00;;
74833;SDS011;63361;52.384;20.930;2023-01-09T16:59:10;51.37;;;26.37;;
74833;SDS011;63361;52.384;20.930;2023-01-09T17:01:37;38.33;;;21.13;;
74833;SDS011;63361;52.384;20.930;2023-01-09T17:04:08;45.30;;;26.13;;
74833;SDS011;63361;52.384;20.930;2023-01-09T17:06:35;38.88;;;23.65;;
74833;SDS011;63361;52.384;20.930;2023-01-09T17:09:02;42.15;;;23.33;;